Time;durP1;ratioP1;P1;durP2;ratioP2;P2;SDS_P1;SDS_P2;PMS_P1;PMS_P2;Temp;Humidity;BMP_temperature;BMP_pressure;BME280_temperature;BME280_humidity;BME280_pressure;Samples;Min_cycle;Max_cycle;Signal;HPM_P1;HPM_P2
2023/01/18 00:00:49;;;;;;;37.00;9.17;;;3.80;99.00;;;;;;5053948;28;20945;-60
2023/01/18 00:03:16;;;;;;;32.40;8.90;;;3.80;98.80;;;;;;5054126;28;20475;-60
2023/01/18 00:05:44;;;;;;;33.77;9.53;;;3.80;98.90;;;;;;5053714;28;20487;-60
2023/01/18 00:08:13;;;;;;;28.63;8.67;;;;;;;;;;5041134;28;20833;-60
2023/01/18 00:10:39;;;;;;;35.13;10.67;;;3.90;99.40;;;;;;5053541;28;21060;-60
2023/01/18 00:13:06;;;;;;;21.43;8.07;;;3.90;99.20;;;;;;5049222;28;20895;-60
2023/01/18 00:15:33;;;;;;;55.80;15.37;;;4.00;99.10;;;;;;5079873;28;20487;-60
2023/01/18 00:18:00;;;;;;;29.37;11.37;;;3.90;98.90;;;;;;5051670;28;20494;-60
2023/01/18 00:20:28;;;;;;;56.10;14.87;;;;;;;;;;5052203;28;20483;-59
2023/01/18 00:22:58;;;;;;;29.73;8.83;;;4.00;99.10;;;;;;5062367;28;21030;-60
2023/01/18 00:25:25;;;;;;;50.60;15.67;;;;;;;;;;5063726;28;20483;-60
2023/01/18 00:27:53;;;;;;;31.77;10.50;;;;;;;;;;5052202;28;21029;-59
2023/01/18 00:30:22;;;;;;;33.87;10.70;;;;;;;;;;5049272;28;20490;-60
2023/01/18 00:32:52;;;;;;;38.80;12.07;;;3.90;99.10;;;;;;5054783;28;20482;-60
2023/01/18 00:35:20;;;;;;;31.63;10.80;;;;;;;;;;5045142;28;20483;-60
2023/01/18 00:37:48;;;;;;;38.37;10.90;;;3.90;99.00;;;;;;5049529;28;20555;-59
2023/01/18 00:40:17;;;;;;;26.70;10.07;;;3.90;99.00;;;;;;5071329;28;20630;-60
2023/01/18 00:45:28;;;;;;;49.23;13.87;;;3.80;99.10;;;;;;5053169;28;20614;-60
2023/01/18 00:47:55;;;;;;;23.80;8.63;;;3.80;99.10;;;;;;5051643;28;20480;-59
2023/01/18 00:50:22;;;;;;;42.47;12.20;;;;;;;;;;5048707;28;20479;-60
2023/01/18 00:52:49;;;;;;;33.00;10.53;;;3.80;98.80;;;;;;5050811;28;20908;-60
2023/01/18 00:55:17;;;;;;;26.60;8.83;;;3.70;98.90;;;;;;5076109;28;20467;-60
2023/01/18 00:57:44;;;;;;;37.10;10.77;;;3.70;98.90;;;;;;5047467;28;20986;-60
2023/01/18 01:00:13;;;;;;;27.40;8.57;;;;;;;;;;5071592;28;20473;-60
2023/01/18 01:02:41;;;;;;;32.87;10.17;;;;;;;;;;5052243;28;20475;-60
2023/01/18 01:07:57;;;;;;;43.57;10.43;;;3.60;98.80;;;;;;5049027;28;20694;-59
2023/01/18 01:10:24;;;;;;;34.50;11.47;;;3.60;99.00;;;;;;5074082;28;20492;-59
2023/01/18 01:26:36;;;;;;;48.67;14.07;;;;;;;;;;5050625;28;20552;-60
2023/01/18 01:29:03;;;;;;;25.10;8.97;;;4.00;99.00;;;;;;5052671;28;20476;-60
2023/01/18 01:31:30;;;;;;;53.70;14.97;;;4.00;99.00;;;;;;5050492;28;20463;-60
2023/01/18 01:33:56;;;;;;;36.23;11.57;;;4.00;98.80;;;;;;5050585;28;20853;-59
2023/01/18 01:36:26;;;;;;;36.03;11.97;;;;;;;;;;5053858;28;20666;-60
2023/01/18 01:38:53;;;;;;;29.20;8.53;;;7.20;99.90;;;;;;5044782;28;20475;-60
2023/01/18 01:41:25;;;;;;;25.87;9.87;;;4.10;98.80;;;;;;5043639;28;21058;-60
2023/01/18 01:43:55;;;;;;;36.23;10.17;;;4.10;98.60;;;;;;5055706;28;20483;-60
2023/01/18 01:46:29;;;;;;;47.77;13.83;;;4.10;98.70;;;;;;5050089;28;20490;-60
2023/01/18 01:49:05;;;;;;;32.20;8.83;;;4.00;98.60;;;;;;5046340;28;20471;-59
2023/01/18 01:51:33;;;;;;;49.73;15.20;;;4.00;98.60;;;;;;5054937;28;20502;-60
2023/01/18 01:54:04;;;;;;;41.07;11.43;;;3.90;98.50;;;;;;5054162;28;20844;-60
2023/01/18 01:56:32;;;;;;;38.83;12.33;;;3.80;98.80;;;;;;5067610;28;20493;-59
2023/01/18 01:59:02;;;;;;;45.53;9.80;;;3.60;98.80;;;;;;5062371;28;20498;-59
2023/01/18 02:01:29;;;;;;;46.90;13.73;;;;;;;;;;5053904;28;20475;-60
2023/01/18 02:03:58;;;;;;;36.83;9.90;;;3.60;99.30;;;;;;5055940;28;20487;-59
2023/01/18 02:06:31;;;;;;;42.50;12.20;;;3.50;99.00;;;;;;5054150;28;20502;-59
2023/01/18 02:08:59;;;;;;;34.23;9.63;;;3.50;98.90;;;;;;5042865;28;20475;-59
2023/01/18 02:11:26;;;;;;;37.10;12.13;;;;;;;;;;5054669;28;20590;-59
2023/01/18 02:13:53;;;;;;;30.37;9.37;;;;;;;;;;5054072;28;20688;-59
2023/01/18 02:16:37;;;;;;;39.40;11.97;;;3.60;99.20;;;;;;5054081;28;21078;-59
2023/01/18 02:19:15;;;;;;;28.40;8.40;;;3.70;99.20;;;;;;5053857;28;20475;-59
2023/01/18 02:21:44;;;;;;;33.90;11.47;;;3.70;99.10;;;;;;5055624;28;20490;-59
2023/01/18 02:24:36;;;;;;;21.03;8.30;;;;;;;;;;5055351;28;20491;-59
2023/01/18 02:27:07;;;;;;;33.10;10.03;;;3.80;99.30;;;;;;5041119;28;20480;-59
2023/01/18 02:29:48;;;;;;;41.47;12.53;;;3.80;99.50;;;;;;5055202;28;20513;-59
2023/01/18 02:32:25;;;;;;;37.20;9.20;;;3.90;99.40;;;;;;5055055;28;20479;-60
2023/01/18 02:34:54;;;;;;;30.77;10.37;;;;;;;;;;5063117;28;20875;-59
2023/01/18 02:37:32;;;;;;;41.23;12.57;;;4.50;99.40;;;;;;5061724;28;20484;-59
2023/01/18 02:40:05;;;;;;;27.63;8.40;;;;;;;;;;5067517;28;20486;-59
2023/01/18 02:48:13;;;;;;;38.03;10.23;;;3.90;98.70;;;;;;5067563;28;20490;-59
2023/01/18 02:50:40;;;;;;;26.43;9.50;;;3.90;98.90;;;;;;5046938;28;21104;-59
2023/01/18 02:53:10;;;;;;;24.57;7.50;;;3.90;98.80;;;;;;5061191;28;20485;-59
2023/01/18 02:55:43;;;;;;;44.13;13.13;;;3.90;99.00;;;;;;5066410;28;20493;-60
2023/01/18 02:58:18;;;;;;;30.37;7.53;;;3.90;99.00;;;;;;5070195;28;20478;-59
2023/01/18 03:00:52;;;;;;;28.37;8.50;;;3.80;98.60;;;;;;5085620;28;20480;-59
2023/01/18 03:03:21;;;;;;;34.90;8.83;;;6.30;99.50;;;;;;5047125;28;20482;-59
2023/01/18 03:05:48;;;;;;;32.73;10.90;;;;;;;;;;5085077;28;20478;-59
2023/01/18 03:08:18;;;;;;;34.70;9.80;;;;;;;;;;5065321;28;20473;-60
2023/01/18 03:10:57;;;;;;;31.27;8.13;;;3.70;98.30;;;;;;5054748;28;21583;-60
2023/01/18 03:13:31;;;;;;;30.77;10.53;;;3.60;98.30;;;;;;5061666;28;20722;-60
2023/01/18 03:16:07;;;;;;;28.97;7.20;;;3.60;98.50;;;;;;5071675;28;20874;-60
2023/01/18 03:18:58;;;;;;;38.97;11.43;;;3.60;98.60;;;;;;5066524;28;20477;-60
2023/01/18 03:21:27;;;;;;;34.37;11.10;;;3.60;98.70;;;;;;5052890;28;21053;-60
2023/01/18 03:23:53;;;;;;;34.87;8.67;;;3.60;98.70;;;;;;5045957;28;20481;-60
2023/01/18 03:26:21;;;;;;;32.20;11.50;;;;;;;;;;5077399;28;20920;-60
2023/01/18 03:34:30;;;;;;;43.30;11.33;;;3.40;99.00;;;;;;5070339;28;20943;-60
2023/01/18 03:37:01;;;;;;;30.57;8.93;;;3.40;99.00;;;;;;5058252;28;20485;-60
2023/01/18 03:39:29;;;;;;;48.07;13.73;;;;;;;;;;5044505;28;20478;-60
2023/01/18 03:42:09;;;;;;;33.87;10.57;;;3.50;99.00;;;;;;5074552;28;20491;-60
2023/01/18 03:44:39;;;;;;;38.33;12.43;;;3.60;99.20;;;;;;5033946;28;20478;-60
2023/01/18 03:47:08;;;;;;;29.27;9.13;;;3.60;99.00;;;;;;5079969;28;20494;-60
2023/01/18 03:49:35;;;;;;;45.90;12.83;;;3.50;99.00;;;;;;5076349;28;20486;-60
2023/01/18 03:52:08;;;;;;;28.80;9.43;;;;;;;;;;5054654;28;20471;-60
2023/01/18 03:54:39;;;;;;;45.80;12.60;;;3.50;99.20;;;;;;5057332;28;20511;-60
2023/01/18 03:57:12;;;;;;;44.37;9.33;;;3.40;99.40;;;;;;5062679;28;20485;-60
2023/01/18 03:59:39;;;;;;;43.63;12.43;;;3.50;99.40;;;;;;5059811;28;20484;-60
2023/01/18 04:02:08;;;;;;;39.80;9.97;;;3.50;99.10;;;;;;5067856;28;21137;-60
2023/01/18 04:04:35;;;;;;;49.43;13.30;;;3.50;99.00;;;;;;5080845;28;20710;-59
2023/01/18 04:07:02;;;;;;;24.40;9.20;;;3.50;98.90;;;;;;5050413;28;20706;-60
2023/01/18 04:09:28;;;;;;;40.37;13.67;;;3.50;99.00;;;;;;5048567;28;20811;-60
2023/01/18 04:11:55;;;;;;;23.43;6.40;;;3.50;98.90;;;;;;5053957;28;20483;-60
2023/01/18 04:14:22;;;;;;;33.70;9.80;;;3.40;99.00;;;;;;5058210;28;20875;-60
2023/01/18 04:16:49;;;;;;;43.33;9.90;;;3.40;99.00;;;;;;5054791;28;20490;-60
2023/01/18 04:19:17;;;;;;;26.33;8.47;;;3.40;99.10;;;;;;5058600;28;20477;-60
2023/01/18 04:21:44;;;;;;;25.97;7.70;;;;;;;;;;5073947;28;20485;-60
2023/01/18 04:24:11;;;;;;;24.30;7.50;;;3.50;99.10;;;;;;5067885;28;20475;-60
2023/01/18 04:26:38;;;;;;;50.47;13.13;;;;;;;;;;5052999;28;20491;-60
2023/01/18 04:29:05;;;;;;;29.43;7.67;;;3.40;99.10;;;;;;5070097;28;20492;-60
2023/01/18 04:31:31;;;;;;;36.13;10.40;;;3.40;99.00;;;;;;5054090;28;20497;-60
2023/01/18 04:33:58;;;;;;;28.33;6.87;;;3.40;99.00;;;;;;5068355;28;20814;-59
2023/01/18 04:36:27;;;;;;;53.93;15.23;;;3.40;99.00;;;;;;5050659;28;21154;-60
2023/01/18 04:38:54;;;;;;;46.33;7.77;;;3.40;98.90;;;;;;5046379;28;20507;-59
2023/01/18 04:41:21;;;;;;;31.83;9.30;;;6.90;99.90;;;;;;5081110;28;20471;-59
2023/01/18 04:43:48;;;;;;;30.07;8.60;;;3.40;99.10;;;;;;5071019;28;20488;-59
2023/01/18 04:46:15;;;;;;;48.60;10.87;;;;;;;;;;5055139;28;20491;-60
2023/01/18 04:48:42;;;;;;;23.00;8.00;;;3.50;99.40;;;;;;5076947;28;20482;-59
2023/01/18 04:51:13;;;;;;;27.53;8.60;;;3.50;99.20;;;;;;5042188;28;20475;-59
2023/01/18 04:53:42;;;;;;;36.17;9.70;;;3.50;99.10;;;;;;5054451;28;20471;-59
2023/01/18 04:56:10;;;;;;;45.60;11.03;;;;;;;;;;5064474;28;20481;-59
2023/01/18 04:58:37;;;;;;;42.50;8.83;;;3.50;99.50;;;;;;5063345;28;20497;-59
2023/01/18 05:01:04;;;;;;;36.60;8.20;;;3.50;99.40;;;;;;5077059;28;20479;-59
2023/01/18 05:03:36;;;;;;;37.20;11.53;;;3.50;99.00;;;;;;5058559;28;20481;-58
2023/01/18 05:06:04;;;;;;;44.13;8.83;;;;;;;;;;5075178;28;20486;-59
2023/01/18 05:08:30;;;;;;;42.87;10.60;;;3.50;98.60;;;;;;5056903;28;20483;-59
2023/01/18 05:11:01;;;;;;;25.57;7.20;;;;;;;;;;5072197;28;20577;-59
2023/01/18 05:13:28;;;;;;;53.33;13.43;;;3.50;98.60;;;;;;5059497;28;20485;-59
2023/01/18 05:15:55;;;;;;;26.27;7.43;;;3.60;98.60;;;;;;5067149;28;20479;-59
2023/01/18 05:18:22;;;;;;;40.37;8.97;;;;;;;;;;5050329;28;20475;-59
2023/01/18 05:20:49;;;;;;;25.47;8.20;;;3.60;98.50;;;;;;5051353;28;20813;-58
2023/01/18 05:23:16;;;;;;;32.87;7.30;;;3.70;98.60;;;;;;5049331;28;20507;-59
2023/01/18 05:25:43;;;;;;;32.10;8.13;;;3.70;98.80;;;;;;5043104;28;20661;-60
2023/01/18 05:28:11;;;;;;;22.00;7.63;;;3.60;98.30;;;;;;5066393;28;20488;-59
2023/01/18 05:30:40;;;;;;;34.37;10.83;;;3.70;98.20;;;;;;5052805;28;20488;-60
2023/01/18 05:33:07;;;;;;;24.27;7.00;;;;;;;;;;5053479;28;20479;-59
2023/01/18 05:35:36;;;;;;;49.63;12.73;;;3.70;98.20;;;;;;5055130;28;20503;-60
2023/01/18 05:38:10;;;;;;;26.60;7.63;;;;;;;;;;5055265;28;20862;-60
2023/01/18 05:40:36;;;;;;;34.97;10.43;;;3.60;98.00;;;;;;5081249;28;20485;-59
2023/01/18 05:43:03;;;;;;;25.13;6.63;;;;;;;;;;5075518;28;20891;-59
2023/01/18 05:45:32;;;;;;;44.87;12.23;;;;;;;;;;5052691;28;20988;-59
2023/01/18 05:47:59;;;;;;;31.13;8.70;;;3.60;98.00;;;;;;5057177;28;20493;-59
2023/01/18 05:50:26;;;;;;;46.83;9.63;;;3.60;97.90;;;;;;5063840;28;20596;-59
2023/01/18 05:52:53;;;;;;;19.80;6.10;;;;;;;;;;5074771;28;20617;-59
2023/01/18 05:55:19;;;;;;;37.50;8.90;;;3.50;97.90;;;;;;5053557;28;20472;-60
2023/01/18 05:57:46;;;;;;;34.77;6.97;;;3.60;98.10;;;;;;5053014;28;20492;-59
2023/01/18 06:00:13;;;;;;;31.47;7.50;;;3.60;97.80;;;;;;5051033;28;20479;-60
2023/01/18 06:02:41;;;;;;;37.40;8.47;;;3.60;97.90;;;;;;5045140;28;20491;-59
2023/01/18 06:05:08;;;;;;;24.87;6.83;;;7.30;99.90;;;;;;5083014;28;20825;-60
2023/01/18 06:07:35;;;;;;;32.63;9.70;;;0.40;96.70;;;;;;5044988;28;21005;-59
2023/01/18 06:10:02;;;;;;;28.73;7.80;;;3.70;97.80;;;;;;5055285;28;20493;-59
2023/01/18 06:12:29;;;;;;;45.80;11.50;;;;;;;;;;5076722;28;20953;-59
2023/01/18 06:14:55;;;;;;;26.07;7.40;;;3.70;97.90;;;;;;5062266;28;20481;-59
2023/01/18 06:17:22;;;;;;;41.70;10.33;;;3.70;97.70;;;;;;5063954;28;21221;-60
2023/01/18 06:19:50;;;;;;;22.20;6.90;;;3.70;97.60;;;;;;5074135;28;20486;-59
2023/01/18 06:22:17;;;;;;;37.97;8.87;;;;;;;;;;5054629;28;20801;-60
2023/01/18 06:24:44;;;;;;;28.00;7.77;;;3.70;97.80;;;;;;5053963;28;20844;-59
2023/01/18 06:27:11;;;;;;;33.77;8.23;;;3.60;98.10;;;;;;5049814;28;20483;-59
2023/01/18 06:29:38;;;;;;;39.13;11.57;;;;;;;;;;5057149;28;20485;-60
2023/01/18 06:32:05;;;;;;;28.43;8.37;;;3.50;97.80;;;;;;5079600;28;20487;-59
2023/01/18 06:34:32;;;;;;;46.87;11.00;;;;;;;;;;5051192;28;20584;-60
2023/01/18 06:37:00;;;;;;;34.17;9.97;;;3.40;97.80;;;;;;5081029;28;20987;-60
2023/01/18 06:39:27;;;;;;;54.70;12.57;;;;;;;;;;5072019;28;20486;-59
2023/01/18 06:41:54;;;;;;;41.00;10.13;;;3.40;97.90;;;;;;5058499;28;20516;-60
2023/01/18 06:44:21;;;;;;;29.67;9.50;;;3.40;97.80;;;;;;5078836;28;20481;-59
2023/01/18 06:46:48;;;;;;;39.67;9.57;;;;;;;;;;5067197;28;20966;-59
2023/01/18 06:49:15;;;;;;;33.30;7.40;;;3.30;97.70;;;;;;5077642;28;20478;-59
2023/01/18 06:51:42;;;;;;;36.50;8.90;;;3.30;97.50;;;;;;5090596;27;20481;-59
2023/01/18 06:54:10;;;;;;;28.27;8.77;;;3.30;97.60;;;;;;5077002;28;20833;-60
2023/01/18 06:56:38;;;;;;;28.30;8.10;;;;;;;;;;5069433;28;20482;-59
2023/01/18 06:59:06;;;;;;;21.33;6.80;;;;;;;;;;5042579;28;20982;-60
2023/01/18 07:01:33;;;;;;;38.20;10.87;;;3.30;97.40;;;;;;5075450;28;20490;-59
2023/01/18 07:03:59;;;;;;;38.23;6.27;;;5.90;98.70;;;;;;5047987;28;20492;-60
2023/01/18 07:06:26;;;;;;;53.47;15.10;;;3.30;97.50;;;;;;5055937;28;20483;-60
2023/01/18 07:08:53;;;;;;;46.37;9.00;;;3.30;97.50;;;;;;5075103;28;20496;-60
2023/01/18 07:11:21;;;;;;;33.60;8.43;;;;;;;;;;5064929;28;20469;-59
2023/01/18 07:13:48;;;;;;;33.03;8.03;;;;;;;;;;5072700;28;20492;-60
2023/01/18 07:16:17;;;;;;;37.83;10.83;;;3.20;97.30;;;;;;5049430;28;20558;-59
2023/01/18 07:18:45;;;;;;;38.37;10.17;;;3.10;97.40;;;;;;5055472;28;20489;-59
2023/01/18 07:21:14;;;;;;;36.83;8.07;;;3.00;97.30;;;;;;5066409;28;20880;-59
2023/01/18 07:23:42;;;;;;;37.10;9.60;;;6.30;98.80;;;;;;5054643;28;21003;-59
2023/01/18 07:26:12;;;;;;;42.63;10.57;;;3.10;97.50;;;;;;5062221;28;20490;-59
2023/01/18 07:28:40;;;;;;;36.97;10.57;;;3.00;97.30;;;;;;5064462;28;20525;-59
2023/01/18 07:31:07;;;;;;;41.60;7.40;;;3.00;97.30;;;;;;5060785;28;20485;-59
2023/01/18 07:33:34;;;;;;;42.27;10.37;;;3.00;97.60;;;;;;5070433;28;20527;-59
2023/01/18 07:36:03;;;;;;;34.17;8.80;;;3.10;97.80;;;;;;5055795;28;20482;-59
2023/01/18 07:38:31;;;;;;;49.70;9.00;;;;;;;;;;5063497;28;20493;-60
2023/01/18 07:41:00;;;;;;;37.00;8.03;;;;;;;;;;5070926;28;20469;-60
2023/01/18 07:43:28;;;;;;;40.87;11.20;;;3.00;97.30;;;;;;5047768;28;20479;-60
2023/01/18 07:45:57;;;;;;;43.97;9.27;;;3.10;97.50;;;;;;5048207;28;20983;-60
2023/01/18 07:48:25;;;;;;;37.00;10.77;;;3.10;97.40;;;;;;5045282;28;20564;-60
2023/01/18 07:50:55;;;;;;;48.10;8.87;;;;;;;;;;5068341;28;20516;-60
2023/01/18 07:53:22;;;;;;;65.57;14.93;;;;;;;;;;5047249;28;20669;-60
2023/01/18 07:55:49;;;;;;;47.63;10.87;;;3.30;97.80;;;;;;5073066;28;20466;-60
2023/01/18 07:58:16;;;;;;;37.23;10.80;;;3.10;97.30;;;;;;5030442;28;20599;-60
2023/01/18 08:00:43;;;;;;;37.43;8.50;;;6.20;98.50;;;;;;5037305;28;20486;-60
2023/01/18 08:03:13;;;;;;;31.30;10.43;;;3.20;97.10;;;;;;5080840;27;20478;-60
2023/01/18 08:05:41;;;;;;;46.47;11.97;;;;;;;;;;5059417;28;20665;-60
2023/01/18 08:08:09;;;;;;;41.37;9.10;;;3.40;97.50;;;;;;5061445;28;20478;-59
2023/01/18 08:10:35;;;;;;;53.20;13.50;;;3.40;97.70;;;;;;5057570;28;20573;-59
2023/01/18 08:13:02;;;;;;;34.13;8.87;;;2.70;97.40;;;;;;5052938;28;20847;-59
2023/01/18 08:15:29;;;;;;;35.10;9.17;;;3.50;97.50;;;;;;5077763;28;20719;-59
2023/01/18 08:17:56;;;;;;;35.30;9.40;;;;;;;;;;5046930;28;20589;-59
2023/01/18 08:20:24;;;;;;;39.40;11.23;;;3.50;97.10;;;;;;5060923;28;20891;-59
2023/01/18 08:22:55;;;;;;;31.70;9.77;;;;;;;;;;5067149;28;20825;-59
2023/01/18 08:25:23;;;;;;;47.47;12.20;;;;;;;;;;5076650;28;20474;-59
2023/01/18 08:27:50;;;;;;;23.60;6.97;;;1.40;96.50;;;;;;5049985;28;20487;-60
2023/01/18 08:30:17;;;;;;;30.57;8.87;;;3.80;98.10;;;;;;5045304;28;20916;-59
2023/01/18 08:32:44;;;;;;;28.70;8.20;;;3.90;97.80;;;;;;5063197;28;20982;-59
2023/01/18 08:35:11;;;;;;;23.40;7.57;;;4.20;98.20;;;;;;5060302;28;20859;-60
2023/01/18 08:37:39;;;;;;;52.20;13.27;;;4.50;98.20;;;;;;5047685;28;20475;-59
2023/01/18 08:40:07;;;;;;;36.07;8.13;;;4.80;97.90;;;;;;5069095;28;20465;-60
2023/01/18 08:42:33;;;;;;;60.40;11.70;;;5.00;96.90;;;;;;5048793;28;20479;-60
2023/01/18 08:45:00;;;;;;;29.40;8.53;;;9.00;98.10;;;;;;5050011;28;20477;-59
2023/01/18 08:47:27;;;;;;;43.77;13.63;;;5.30;96.00;;;;;;5073144;28;21458;-60
2023/01/18 08:49:54;;;;;;;21.40;7.40;;;;;;;;;;5049108;28;21241;-59
2023/01/18 08:52:20;;;;;;;36.97;9.70;;;5.50;95.80;;;;;;5046934;28;20482;-60
2023/01/18 08:54:49;;;;;;;36.27;9.47;;;5.50;95.20;;;;;;5070015;27;20480;-60
2023/01/18 08:57:15;;;;;;;27.80;8.47;;;5.40;94.40;;;;;;5063041;28;20475;-60
2023/01/18 08:59:43;;;;;;;42.33;11.67;;;;;;;;;;5063013;27;20477;-60
2023/01/18 09:02:10;;;;;;;31.40;8.93;;;5.60;94.40;;;;;;5064846;28;20487;-60
2023/01/18 09:04:37;;;;;;;46.50;11.53;;;5.70;94.50;;;;;;5052194;28;20488;-60
2023/01/18 09:07:04;;;;;;;26.53;9.47;;;;;;;;;;5070529;28;20473;-60
2023/01/18 09:09:31;;;;;;;53.53;16.90;;;;;;;;;;5072641;28;20501;-60
2023/01/18 09:11:59;;;;;;;39.07;10.53;;;5.60;94.40;;;;;;5054754;28;20481;-60
2023/01/18 09:14:26;;;;;;;37.67;12.40;;;;;;;;;;5058623;28;20486;-60
2023/01/18 09:16:53;;;;;;;29.87;10.90;;;;;;;;;;5075026;28;20483;-60
2023/01/18 09:19:20;;;;;;;37.27;9.10;;;;;;;;;;5051986;28;20483;-60
2023/01/18 09:21:48;;;;;;;25.50;7.00;;;5.70;94.40;;;;;;5094607;27;20475;-60
2023/01/18 09:24:15;;;;;;;29.50;8.97;;;;;;;;;;5072792;28;20473;-60
2023/01/18 09:26:42;;;;;;;44.30;11.77;;;6.00;94.70;;;;;;5048453;28;20484;-60
2023/01/18 09:29:10;;;;;;;27.73;8.60;;;6.30;94.90;;;;;;5052199;28;21822;-61
2023/01/18 09:31:37;;;;;;;33.33;12.87;;;6.50;94.50;;;;;;5051866;28;20520;-60
2023/01/18 09:34:04;;;;;;;34.13;9.10;;;;;;;;;;5049522;28;20551;-60
2023/01/18 09:36:31;;;;;;;47.40;14.30;;;6.90;93.90;;;;;;5046379;28;20484;-60
2023/01/18 09:38:57;;;;;;;28.70;10.90;;;6.90;93.70;;;;;;5051633;28;20847;-61
2023/01/18 09:41:34;;;;;;;37.57;11.23;;;7.00;93.90;;;;;;5051198;28;20511;-61
2023/01/18 09:44:05;;;;;;;23.23;9.33;;;6.80;92.80;;;;;;5048088;28;20477;-61
2023/01/18 09:46:35;;;;;;;37.77;13.57;;;;;;;;;;5066447;28;20803;-61
2023/01/18 09:49:04;;;;;;;23.83;9.17;;;;;;;;;;5048451;28;20555;-60
2023/01/18 09:51:35;;;;;;;41.13;12.23;;;6.80;92.90;;;;;;5048335;28;20479;-61
2023/01/18 09:54:14;;;;;;;28.57;7.43;;;7.70;93.70;;;;;;5037311;28;20528;-61
2023/01/18 09:56:44;;;;;;;43.07;11.90;;;;;;;;;;5048482;28;20999;-60
2023/01/18 09:59:20;;;;;;;18.00;7.43;;;6.80;93.20;;;;;;5051631;28;20475;-60
2023/01/18 10:01:49;;;;;;;27.73;9.10;;;6.70;92.90;;;;;;5062532;28;20485;-60
2023/01/18 10:04:21;;;;;;;32.80;8.20;;;6.80;93.10;;;;;;5072082;28;20478;-60
2023/01/18 10:06:52;;;;;;;35.23;12.33;;;6.70;93.80;;;;;;5040978;28;20561;-61
2023/01/18 10:09:25;;;;;;;24.37;9.87;;;6.50;93.20;;;;;;5065836;28;20987;-60
2023/01/18 10:11:58;;;;;;;31.70;8.53;;;;;;;;;;5071573;28;20481;-61
2023/01/18 10:14:38;;;;;;;37.13;12.93;;;6.50;93.20;;;;;;5066190;27;20569;-61
2023/01/18 10:17:11;;;;;;;25.33;7.97;;;6.50;93.70;;;;;;5059226;28;21055;-61
2023/01/18 10:19:39;;;;;;;33.87;13.03;;;6.50;93.10;;;;;;5033064;28;20554;-61
2023/01/18 10:22:12;;;;;;;26.00;9.83;;;6.50;93.60;;;;;;5079721;28;20844;-61
2023/01/18 10:24:46;;;;;;;31.97;12.20;;;;;;;;;;5052665;28;20487;-60
2023/01/18 10:27:29;;;;;;;32.70;9.00;;;;;;;;;;5052767;28;20481;-61
2023/01/18 10:30:10;;;;;;;22.47;9.40;;;6.30;92.90;;;;;;5037618;28;20580;-61
2023/01/18 10:32:38;;;;;;;32.87;11.83;;;;;;;;;;5056017;28;20895;-61
2023/01/18 10:35:14;;;;;;;38.43;10.67;;;;;;;;;;5082582;27;20489;-61
2023/01/18 10:37:44;;;;;;;36.53;9.47;;;6.40;93.50;;;;;;5040348;28;20567;-60
2023/01/18 10:40:13;;;;;;;24.23;7.03;;;6.60;93.40;;;;;;5044899;28;20465;-60
2023/01/18 10:42:43;;;;;;;52.73;13.50;;;;;;;;;;5048980;28;20499;-60
2023/01/18 10:45:16;;;;;;;26.00;8.27;;;6.80;92.80;;;;;;5061296;28;21026;-61
2023/01/18 10:47:45;;;;;;;32.80;9.73;;;6.90;92.70;;;;;;5076971;28;20477;-60
2023/01/18 10:50:13;;;;;;;30.87;8.83;;;;;;;;;;5059583;28;20840;-61
2023/01/18 10:52:40;;;;;;;33.87;10.90;;;6.90;92.10;;;;;;5061914;28;20847;-60
2023/01/18 10:55:13;;;;;;;25.13;8.70;;;7.00;92.30;;;;;;5084383;27;20481;-60
2023/01/18 10:57:43;;;;;;;48.80;15.70;;;7.00;92.60;;;;;;5045664;28;20484;-60
2023/01/18 11:00:21;;;;;;;35.97;9.83;;;7.00;92.10;;;;;;5069349;28;20478;-60
2023/01/18 11:02:50;;;;;;;32.20;11.43;;;;;;;;;;5061279;27;20480;-60
2023/01/18 11:05:24;;;;;;;18.23;6.90;;;7.40;92.30;;;;;;5069510;27;20487;-61
2023/01/18 11:08:13;;;;;;;21.23;8.93;;;7.50;92.70;;;;;;5043444;28;20494;-60
2023/01/18 11:10:40;;;;;;;28.27;10.20;;;7.50;92.00;;;;;;5050945;28;20489;-60
2023/01/18 11:13:25;;;;;;;22.80;8.53;;;7.40;90.80;;;;;;5058699;28;20572;-60
2023/01/18 11:16:12;;;;;;;26.83;8.60;;;7.20;90.90;;;;;;5061895;28;20476;-60
2023/01/18 11:18:55;;;;;;;28.73;11.60;;;7.00;90.70;;;;;;5075496;28;21204;-61
2023/01/18 11:21:22;;;;;;;31.90;9.57;;;;;;;;;;5047853;28;20499;-60
2023/01/18 11:23:50;;;;;;;21.43;9.40;;;6.80;92.50;;;;;;5057905;28;21099;-60
2023/01/18 11:26:19;;;;;;;24.37;13.20;;;6.90;92.10;;;;;;5030920;28;20482;-61
2023/01/18 11:28:50;;;;;;;19.60;10.50;;;7.00;92.40;;;;;;5069978;28;20736;-60
2023/01/18 11:31:20;;;;;;;17.00;8.00;;;7.30;92.70;;;;;;5040267;28;20504;-61
2023/01/18 11:33:52;;;;;;;25.50;9.40;;;7.30;91.90;;;;;;5043887;28;20478;-60
2023/01/18 11:36:20;;;;;;;25.83;12.77;;;7.40;92.00;;;;;;5073107;27;20852;-61
2023/01/18 11:38:48;;;;;;;17.93;9.07;;;;;;;;;;5054478;28;20914;-61
2023/01/18 11:41:18;;;;;;;10.87;6.33;;;7.40;90.70;;;;;;5063777;28;20566;-61
2023/01/18 11:43:57;;;;;;;17.13;9.40;;;7.30;90.70;;;;;;5056393;28;20506;-61
2023/01/18 11:46:43;;;;;;;30.83;12.40;;;7.10;90.30;;;;;;5059295;28;20473;-61
2023/01/18 11:49:22;;;;;;;13.37;6.57;;;7.00;90.80;;;;;;5040107;28;21152;-60
2023/01/18 11:51:54;;;;;;;25.53;11.23;;;6.80;89.70;;;;;;5034732;28;20987;-60
2023/01/18 11:54:26;;;;;;;20.00;9.30;;;6.70;89.30;;;;;;5063948;28;20477;-60
2023/01/18 11:56:55;;;;;;;22.13;7.37;;;6.70;90.70;;;;;;5060208;28;21382;-61
2023/01/18 11:59:26;;;;;;;17.33;8.37;;;6.70;90.80;;;;;;5048108;28;20498;-60
2023/01/18 12:02:19;;;;;;;21.07;8.10;;;6.70;90.40;;;;;;5044586;28;20558;-61
2023/01/18 12:04:58;;;;;;;15.37;6.73;;;6.80;91.00;;;;;;5047833;28;21003;-60
2023/01/18 12:07:36;;;;;;;25.87;10.03;;;6.90;90.10;;;;;;5054087;28;20959;-60
2023/01/18 12:10:07;;;;;;;16.73;7.80;;;7.10;90.20;;;;;;5076579;28;20466;-61
2023/01/18 12:12:46;;;;;;;25.43;9.60;;;7.40;91.00;;;;;;5046788;27;20470;-61
2023/01/18 12:15:28;;;;;;;22.20;10.27;;;7.70;90.60;;;;;;5075399;27;20985;-61
2023/01/18 12:18:13;;;;;;;22.90;6.83;;;8.00;91.10;;;;;;5051499;28;20505;-60
2023/01/18 12:20:54;;;;;;;22.77;8.97;;;8.10;88.60;;;;;;5040232;28;20859;-61
2023/01/18 12:23:46;;;;;;;14.13;7.30;;;8.40;90.40;;;;;;5081274;27;20470;-61
2023/01/18 12:26:30;;;;;;;28.73;8.60;;;8.30;87.20;;;;;;5052698;28;20483;-61
2023/01/18 12:29:22;;;;;;;18.30;7.90;;;8.20;87.20;;;;;;5046710;28;20495;-61
2023/01/18 12:32:04;;;;;;;22.27;11.00;;;8.10;87.10;;;;;;5050794;28;20468;-60
2023/01/18 12:34:41;;;;;;;25.53;9.70;;;8.00;87.50;;;;;;5059807;28;20927;-61
2023/01/18 12:37:23;;;;;;;12.23;5.70;;;8.10;86.50;;;;;;5049958;28;20637;-60
2023/01/18 12:40:04;;;;;;;11.00;5.83;;;8.10;86.20;;;;;;5045191;28;20897;-61
2023/01/18 12:42:42;;;;;;;21.67;9.17;;;8.20;84.60;;;;;;5048384;28;20481;-61
2023/01/18 12:45:22;;;;;;;23.50;6.73;;;7.90;82.30;;;;;;5078866;28;20527;-61
2023/01/18 12:47:59;;;;;;;17.20;8.10;;;7.90;83.90;;;;;;5059658;28;20586;-61
2023/01/18 12:50:30;;;;;;;31.77;9.07;;;7.70;86.00;;;;;;5051743;28;20483;-60
2023/01/18 12:53:02;;;;;;;22.23;7.77;;;7.40;84.90;;;;;;5056640;28;20472;-60
2023/01/18 12:55:32;;;;;;;20.47;9.83;;;7.30;86.50;;;;;;5056316;28;20498;-60
2023/01/18 12:58:01;;;;;;;20.47;8.63;;;7.40;88.40;;;;;;5051484;28;20483;-60
2023/01/18 13:00:34;;;;;;;24.40;10.70;;;7.60;90.10;;;;;;5074758;28;20483;-61
2023/01/18 13:03:09;;;;;;;16.10;6.20;;;7.70;87.50;;;;;;5053200;28;20986;-60
2023/01/18 13:05:49;;;;;;;32.03;10.50;;;7.80;87.10;;;;;;5048642;28;20494;-60
2023/01/18 13:08:27;;;;;;;17.23;7.57;;;7.80;83.70;;;;;;5042866;28;20541;-60
2023/01/18 13:10:56;;;;;;;16.67;6.40;;;7.90;84.80;;;;;;5044845;28;20483;-60
2023/01/18 13:13:27;;;;;;;16.40;9.20;;;8.00;85.90;;;;;;5051931;28;20484;-60
2023/01/18 13:16:00;;;;;;;18.13;8.77;;;8.00;85.70;;;;;;5047578;28;20478;-60
2023/01/18 13:18:33;;;;;;;18.67;9.83;;;8.00;86.50;;;;;;5064038;28;20584;-60
2023/01/18 13:21:11;;;;;;;19.93;8.40;;;7.90;86.10;;;;;;5042919;28;20483;-60
2023/01/18 13:23:50;;;;;;;22.83;9.83;;;7.80;85.70;;;;;;5055482;28;20486;-60
2023/01/18 13:26:24;;;;;;;28.37;12.30;;;7.60;85.30;;;;;;5054556;28;20505;-60
2023/01/18 13:29:07;;;;;;;20.10;7.63;;;7.40;86.40;;;;;;5061406;28;20478;-60
2023/01/18 13:31:34;;;;;;;29.70;11.73;;;7.30;85.80;;;;;;5040236;28;20476;-60
2023/01/18 13:34:02;;;;;;;20.17;9.73;;;7.20;86.60;;;;;;5036608;28;20480;-60
2023/01/18 13:36:41;;;;;;;37.30;14.60;;;7.10;86.00;;;;;;5046619;28;20507;-60
2023/01/18 13:39:15;;;;;;;18.13;7.83;;;7.10;86.60;;;;;;5045645;28;21674;-60
2023/01/18 13:42:06;;;;;;;24.73;9.97;;;7.20;87.00;;;;;;5069007;28;21216;-60
2023/01/18 13:44:38;;;;;;;35.93;11.77;;;7.20;85.90;;;;;;5049481;28;20552;-60
2023/01/18 13:47:46;;;;;;;28.73;9.93;;;7.20;86.30;;;;;;5071987;27;20493;-60
2023/01/18 13:50:43;;;;;;;20.70;7.50;;;7.30;87.70;;;;;;5052014;28;20477;-60
2023/01/18 13:53:24;;;;;;;21.80;9.60;;;7.30;86.40;;;;;;5038446;28;22679;-60